Aérodrome :
LOGIN :

S'inscrire | Disclaimer

   EN    FR    IT 

 










Légende :    VFR   VFR Marginal   IFR   IFR Intensif   IFR Très Intensif
Visi : 
Plafond : 
>= 8 km
>= 3000ft
5 à 8 km
1000 à 3000 ft
1500m à 5 km
500 à 1000 ft
800 à 1500m
200 à 500 ft
< 800m
< 200 ft
Symboles :   Orages  Brouillard  Fortes neiges  Fortes précipitations  Vent > 20 kt
SIGMETs :   Divers  Orages  Givrage  Turbulence  Onde Orograph.  Cendres Volcan.






- Altitude de l'aérodrome : 16 ft
- Code IATA : AAE


DABB - Annaba-Rabah Bitat

DERNIER METAR :
  • 021100Z 04013KT CAVOK 30/23 Q1013

METARs EXPIRÉS :
  • 021000Z 03011KT CAVOK 30/23 Q1013
  • 020900Z 03009KT CAVOK 30/21 Q1013

TAF TAF DABB
Valide du 02 à 12h jusqu'au 03 à 12h UTC


021100Z 0212/0312 04008KT CAVOK
PROB30
TEMPO 0212/0219 02014KT
PROB30
TEMPO 0200/0206 3000 BR



MET'MAP, la Météo Aéronautique d'un coup d'oeil ! - Copyright ORBIFLY Décembre 2007 - Disclaimer

ORBIFLY MET'MAP TEAM :

Programmation & Développement : Alexandra Zaïnal
Sur une idée originale de : Baudouin d'Aumeries
Assistance à la programmation : Marc-Olivier Méhu
Soutien technique & logistique : Manuel Goepfert

Contact : metmap@orbifly.com




SOURCES & CREDITS :

   NOAA